createdAt,value
2022-09-25T00:00:55.519Z,98.28
2022-09-25T00:03:24.293Z,98.34
2022-09-25T00:05:51.902Z,98.72
2022-09-25T00:08:19.708Z,98.71
2022-09-25T00:10:49.365Z,98.06
2022-09-25T00:13:20.272Z,98.44
2022-09-25T00:15:55.967Z,98.66
2022-09-25T00:18:43.831Z,98.20
2022-09-25T00:21:14.110Z,98.08
2022-09-25T00:23:42.163Z,98.41
2022-09-25T00:26:08.807Z,98.29
2022-09-25T00:28:36.610Z,98.20
2022-09-25T00:31:07.561Z,98.49
2022-09-25T00:33:35.227Z,97.91
2022-09-25T00:36:09.572Z,98.62
2022-09-25T00:38:37.687Z,98.12
2022-09-25T00:41:06.557Z,98.02
2022-09-25T00:43:40.350Z,98.19
2022-09-25T00:46:18.546Z,97.83
2022-09-25T00:48:59.932Z,98.15
2022-09-25T00:51:34.912Z,98.15
2022-09-25T00:54:05.341Z,98.13
2022-09-25T00:56:39.664Z,97.56
2022-09-25T00:59:09.856Z,97.94
2022-09-25T01:01:36.643Z,97.81
2022-09-25T01:04:03.154Z,97.93
2022-09-25T01:06:29.783Z,97.81
2022-09-25T01:08:57.018Z,98.02
2022-09-25T01:11:23.889Z,98.18
2022-09-25T01:13:55.093Z,98.10
2022-09-25T01:16:37.920Z,98.22
2022-09-25T01:19:38.622Z,98.19
2022-09-25T01:22:15.600Z,98.36
2022-09-25T01:24:58.295Z,98.59
2022-09-25T01:27:31.622Z,98.25
2022-09-25T01:30:05.658Z,97.84
2022-09-25T01:32:54.823Z,97.87
2022-09-25T01:35:34.626Z,97.16
2022-09-25T01:38:31.388Z,97.64
2022-09-25T01:41:20.602Z,96.98
2022-09-25T01:43:56.363Z,97.54
2022-09-25T01:46:28.776Z,97.55
2022-09-25T01:49:02.780Z,97.15
2022-09-25T01:51:35.821Z,97.29
2022-09-25T01:54:09.726Z,97.11
2022-09-25T01:56:46.486Z,96.99
2022-09-25T01:59:18.366Z,96.78
2022-09-25T02:01:47.467Z,96.71
2022-09-25T02:04:26.086Z,96.81
2022-09-25T02:06:56.409Z,96.56
2022-09-25T02:09:32.222Z,96.65
2022-09-25T02:12:05.251Z,96.69
2022-09-25T02:14:46.919Z,96.63
2022-09-25T02:17:41.950Z,96.66
2022-09-25T02:20:28.300Z,96.53
2022-09-25T02:22:55.313Z,96.50
2022-09-25T02:25:37.631Z,96.39
2022-09-25T02:28:04.195Z,96.79
2022-09-25T02:30:30.826Z,96.66
2022-09-25T02:32:58.075Z,96.44
2022-09-25T02:35:25.967Z,95.83
2022-09-25T02:37:55.718Z,96.27
2022-09-25T02:41:10.030Z,96.54
2022-09-25T02:43:57.520Z,96.28
2022-09-25T02:46:39.309Z,95.87
2022-09-25T02:49:22.403Z,96.17
2022-09-25T02:52:11.101Z,96.04
2022-09-25T02:54:45.531Z,96.41
2022-09-25T02:57:33.795Z,95.53
2022-09-25T03:00:05.190Z,95.50
2022-09-25T03:02:34.989Z,95.25
2022-09-25T03:05:03.598Z,95.96
2022-09-25T03:07:49.990Z,95.90
2022-09-25T03:10:18.463Z,95.68
2022-09-25T03:12:44.876Z,95.62
2022-09-25T03:15:12.193Z,95.74
2022-09-25T03:17:39.675Z,95.60
2022-09-25T03:20:07.194Z,95.77
2022-09-25T03:22:33.540Z,95.85
2022-09-25T03:24:59.876Z,95.88
2022-09-25T03:27:28.714Z,96.33
2022-09-25T03:29:55.302Z,96.21
2022-09-25T03:32:23.565Z,95.76
2022-09-25T03:34:50.276Z,96.13
2022-09-25T03:37:16.625Z,95.82
2022-09-25T03:39:42.956Z,96.10
2022-09-25T03:42:09.335Z,95.62
2022-09-25T03:44:35.702Z,95.72
2022-09-25T03:47:02.037Z,95.95
2022-09-25T03:49:28.378Z,95.69
2022-09-25T03:51:54.712Z,95.67
2022-09-25T03:54:21.026Z,95.82
2022-09-25T03:56:47.385Z,95.76
2022-09-25T03:59:13.875Z,95.70
2022-09-25T04:01:41.134Z,96.08
2022-09-25T04:04:07.607Z,95.71
2022-09-25T04:06:33.951Z,95.97
2022-09-25T04:09:00.277Z,95.78
2022-09-25T04:11:26.662Z,95.56
2022-09-25T04:13:53.139Z,95.91
2022-09-25T04:16:20.993Z,95.57
2022-09-25T04:18:47.461Z,95.57
2022-09-25T04:21:14.692Z,95.72
2022-09-25T04:23:42.017Z,96.07
2022-09-25T04:26:09.330Z,95.69
2022-09-25T04:28:35.990Z,95.92
2022-09-25T04:31:03.601Z,96.25
2022-09-25T04:33:48.394Z,95.96
2022-09-25T04:36:20.930Z,95.66
2022-09-25T04:38:48.335Z,95.92
2022-09-25T04:41:16.542Z,95.92
2022-09-25T04:43:43.355Z,96.49
2022-09-25T04:46:15.439Z,96.49
2022-09-25T04:48:46.250Z,96.19
2022-09-25T04:51:12.892Z,96.00
2022-09-25T04:53:40.545Z,96.22
2022-09-25T04:56:14.627Z,96.13
2022-09-25T04:58:49.891Z,96.06
2022-09-25T05:01:18.091Z,95.58
2022-09-25T05:03:48.085Z,95.46
2022-09-25T05:06:14.496Z,96.11
2022-09-25T05:08:40.826Z,95.73
2022-09-25T05:11:08.155Z,96.16
2022-09-25T05:13:34.481Z,96.44
2022-09-25T05:16:01.295Z,96.19
2022-09-25T05:18:27.757Z,95.92
2022-09-25T05:20:54.259Z,96.31
2022-09-25T05:23:21.655Z,96.13
2022-09-25T05:25:58.053Z,96.02
2022-09-25T05:28:24.774Z,95.78
2022-09-25T05:30:51.695Z,95.74
2022-09-25T05:33:18.966Z,95.49
2022-09-25T05:35:45.371Z,95.80
2022-09-25T05:38:12.321Z,96.24
2022-09-25T05:40:41.709Z,95.74
2022-09-25T05:43:08.533Z,96.00
2022-09-25T05:45:35.850Z,95.89
2022-09-25T05:48:04.684Z,95.59
2022-09-25T05:50:32.496Z,95.74
2022-09-25T05:53:04.032Z,96.46
2022-09-25T05:55:30.928Z,96.05
2022-09-25T05:58:04.020Z,95.75
2022-09-25T06:00:32.812Z,95.77
2022-09-25T06:03:02.434Z,96.31
2022-09-25T06:05:29.115Z,96.00
2022-09-25T06:07:55.925Z,95.91
2022-09-25T06:10:22.833Z,95.61
2022-09-25T06:12:49.193Z,95.54
2022-09-25T06:15:15.756Z,95.32
2022-09-25T06:17:42.079Z,95.92
2022-09-25T06:20:14.993Z,95.54
2022-09-25T06:22:44.253Z,95.70
2022-09-25T06:25:10.911Z,95.56
2022-09-25T06:27:37.509Z,95.64
2022-09-25T06:30:04.958Z,95.91
2022-09-25T06:32:31.281Z,96.12
2022-09-25T06:34:57.611Z,95.97
2022-09-25T06:37:23.949Z,95.85
2022-09-25T06:39:50.277Z,96.12
2022-09-25T06:42:16.685Z,95.92
2022-09-25T06:44:43.864Z,95.67
2022-09-25T06:47:16.234Z,96.17
2022-09-25T06:49:46.143Z,96.19
2022-09-25T06:52:12.600Z,96.23
2022-09-25T06:54:43.798Z,96.35
2022-09-25T06:57:12.431Z,96.05
2022-09-25T06:59:39.171Z,96.18
2022-09-25T07:02:24.437Z,96.39
2022-09-25T07:04:51.962Z,96.02
2022-09-25T07:07:21.214Z,95.45
2022-09-25T07:09:50.566Z,95.47
2022-09-25T07:12:18.420Z,95.20
2022-09-25T07:14:46.851Z,95.24
2022-09-25T07:17:14.327Z,94.76
2022-09-25T07:19:40.652Z,94.42
2022-09-25T07:22:07.025Z,94.50
2022-09-25T07:24:33.423Z,94.71
2022-09-25T07:26:59.774Z,93.98
2022-09-25T07:29:26.208Z,94.00
2022-09-25T07:31:52.565Z,94.48
2022-09-25T07:34:18.927Z,94.54
2022-09-25T07:36:46.142Z,94.01
2022-09-25T07:39:17.490Z,94.12
2022-09-25T07:41:45.150Z,93.90
2022-09-25T07:44:36.079Z,93.82
2022-09-25T07:46:58.058Z,93.62
2022-09-25T07:49:24.380Z,92.80
2022-09-25T07:51:50.708Z,92.40
2022-09-25T07:54:17.034Z,92.78
2022-09-25T07:56:43.414Z,92.86
2022-09-25T07:59:09.884Z,92.66
2022-09-25T08:01:40.979Z,92.72
2022-09-25T08:04:09.957Z,92.97
2022-09-25T08:06:36.654Z,92.71
2022-09-25T08:09:06.856Z,92.12
2022-09-25T08:11:36.758Z,92.54
2022-09-25T08:14:03.418Z,91.95
2022-09-25T08:16:29.834Z,91.77
2022-09-25T08:18:56.163Z,91.98
2022-09-25T08:21:22.545Z,91.05
2022-09-25T08:23:53.038Z,91.05
2022-09-25T08:26:21.188Z,90.82
2022-09-25T08:28:47.926Z,90.16
2022-09-25T08:31:14.738Z,89.83
2022-09-25T08:33:46.149Z,88.84
2022-09-25T08:36:12.717Z,88.98
2022-09-25T08:38:39.057Z,88.32
2022-09-25T08:41:28.018Z,88.18
2022-09-25T08:44:01.423Z,87.49
2022-09-25T08:47:22.529Z,87.62
2022-09-25T08:49:54.668Z,87.96
2022-09-25T08:52:22.710Z,87.33
2022-09-25T08:54:51.519Z,86.27
2022-09-25T08:57:37.936Z,85.70
2022-09-25T09:00:09.394Z,85.37
2022-09-25T09:02:46.847Z,84.85
2022-09-25T09:05:28.879Z,83.86
2022-09-25T09:08:02.442Z,83.39
2022-09-25T09:10:37.786Z,82.89
2022-09-25T09:13:26.997Z,82.85
2022-09-25T09:15:59.097Z,82.51
2022-09-25T09:18:27.712Z,82.41
2022-09-25T09:20:56.560Z,82.28
2022-09-25T09:23:49.138Z,81.88
2022-09-25T09:26:34.702Z,81.25
2022-09-25T09:29:26.007Z,81.21
2022-09-25T09:32:13.984Z,81.27
2022-09-25T09:35:06.228Z,81.22
2022-09-25T09:37:49.882Z,80.94
2022-09-25T09:40:37.283Z,81.62
2022-09-25T09:43:28.209Z,81.20
2022-09-25T09:46:04.381Z,81.30
2022-09-25T09:48:39.158Z,80.42
2022-09-25T09:51:45.158Z,80.13
2022-09-25T09:54:21.235Z,79.50
2022-09-25T09:56:50.326Z,78.45
2022-09-25T09:59:22.534Z,77.66
2022-09-25T10:02:00.624Z,77.43
2022-09-25T10:04:33.693Z,77.85
2022-09-25T10:07:05.846Z,77.45
2022-09-25T10:09:32.376Z,77.19
2022-09-25T10:12:07.424Z,77.46
2022-09-25T10:14:39.571Z,77.22
2022-09-25T10:17:08.753Z,77.15
2022-09-25T10:19:47.401Z,77.27
2022-09-25T10:22:17.401Z,76.63
2022-09-25T10:25:01.713Z,75.99
2022-09-25T10:27:41.255Z,76.21
2022-09-25T10:30:10.443Z,76.39
2022-09-25T10:32:46.918Z,77.23
2022-09-25T10:35:22.367Z,77.11
2022-09-25T10:37:53.089Z,77.77
2022-09-25T10:40:28.795Z,77.76
2022-09-25T10:43:20.492Z,77.09
2022-09-25T10:45:49.174Z,77.10
2022-09-25T10:48:48.637Z,77.13
2022-09-25T10:51:18.016Z,76.57
2022-09-25T10:54:10.574Z,76.30
2022-09-25T10:56:38.956Z,76.28
2022-09-25T10:59:20.863Z,76.46
2022-09-25T11:01:50.861Z,76.22
2022-09-25T11:04:28.012Z,75.43
2022-09-25T11:07:18.263Z,75.07
2022-09-25T11:09:45.254Z,74.26
2022-09-25T11:12:22.061Z,73.35
2022-09-25T11:14:58.121Z,73.01
2022-09-25T11:17:42.517Z,73.77
2022-09-25T11:20:16.142Z,74.28
2022-09-25T11:22:48.343Z,74.95
2022-09-25T11:26:00.043Z,75.46
2022-09-25T11:28:39.559Z,75.38
2022-09-25T11:31:32.807Z,75.22
2022-09-25T11:34:14.475Z,74.59
2022-09-25T11:36:49.213Z,73.84
2022-09-25T11:39:43.636Z,74.06
2022-09-25T11:42:24.534Z,73.32
2022-09-25T11:45:24.122Z,73.78
2022-09-25T11:47:57.619Z,74.07
2022-09-25T11:50:34.458Z,73.86
2022-09-25T11:53:26.916Z,73.03
2022-09-25T11:56:07.429Z,72.48
2022-09-25T11:58:53.189Z,71.52
2022-09-25T12:01:45.131Z,71.57
2022-09-25T12:04:49.125Z,72.65
2022-09-25T12:07:40.503Z,72.02
2022-09-25T12:10:23.940Z,71.85
2022-09-25T12:13:24.781Z,72.70
2022-09-25T12:16:02.461Z,72.77
2022-09-25T12:19:09.401Z,72.02
2022-09-25T12:21:47.798Z,69.83
2022-09-25T12:24:41.800Z,68.46
2022-09-25T12:27:19.033Z,67.99
2022-09-25T12:30:14.095Z,67.22
2022-09-25T12:33:14.939Z,66.51
2022-09-25T12:36:00.407Z,67.09
2022-09-25T12:38:43.850Z,67.43
2022-09-25T12:41:33.947Z,67.94
2022-09-25T12:44:11.265Z,68.64
2022-09-25T12:46:57.561Z,68.89
2022-09-25T12:49:35.035Z,68.63
2022-09-25T12:52:10.132Z,68.27
2022-09-25T12:54:42.418Z,67.71
2022-09-25T12:57:35.010Z,67.22
2022-09-25T13:00:12.803Z,66.95
2022-09-25T13:02:59.166Z,67.87
2022-09-25T13:05:37.747Z,67.83
2022-09-25T13:08:16.752Z,67.19
2022-09-25T13:10:56.916Z,65.68
2022-09-25T13:13:31.039Z,62.26
2022-09-25T13:15:59.713Z,60.90
2022-09-25T13:18:28.775Z,62.28
2022-09-25T13:21:01.567Z,62.67
2022-09-25T13:23:36.769Z,62.93
2022-09-25T13:26:18.974Z,64.30
2022-09-25T13:29:00.797Z,65.02
2022-09-25T13:31:30.234Z,66.61
2022-09-25T13:34:12.088Z,67.67
2022-09-25T13:36:57.326Z,68.60
2022-09-25T13:39:45.488Z,69.16
2022-09-25T13:42:20.586Z,69.21
2022-09-25T13:45:06.525Z,69.34
2022-09-25T13:47:36.522Z,69.41
2022-09-25T13:50:11.751Z,68.54
2022-09-25T13:52:41.058Z,67.83
2022-09-25T13:55:13.542Z,67.38
2022-09-25T13:58:02.139Z,67.02
2022-09-25T14:00:37.772Z,67.49
2022-09-25T14:03:05.307Z,68.42
2022-09-25T14:05:38.354Z,69.36
2022-09-25T14:08:13.909Z,70.15
2022-09-25T14:10:45.948Z,71.06
2022-09-25T14:13:14.661Z,71.57
2022-09-25T14:15:42.189Z,72.51
2022-09-25T14:18:17.460Z,73.63
2022-09-25T14:20:47.302Z,73.95
2022-09-25T14:23:15.609Z,74.17
2022-09-25T14:25:46.669Z,74.89
2022-09-25T14:28:22.788Z,75.22
2022-09-25T14:31:19.706Z,75.43
2022-09-25T14:34:13.950Z,75.23
2022-09-25T14:37:00.396Z,75.65
2022-09-25T14:39:45.143Z,75.78
2022-09-25T14:42:33.177Z,75.37
2022-09-25T14:45:29.249Z,75.77
2022-09-25T14:47:59.708Z,75.85
2022-09-25T14:50:31.851Z,75.81
2022-09-25T14:53:02.463Z,75.61
2022-09-25T14:55:36.678Z,75.70
2022-09-25T14:58:09.066Z,75.50
2022-09-25T15:00:43.707Z,75.05
2022-09-25T15:03:13.049Z,74.43
2022-09-25T15:05:41.498Z,74.42
2022-09-25T15:08:39.771Z,74.22
2022-09-25T15:11:12.904Z,74.10
2022-09-25T15:13:39.598Z,72.97
2022-09-25T15:16:31.604Z,71.24
2022-09-25T15:19:01.199Z,69.18
2022-09-25T15:21:33.473Z,66.45
2022-09-25T15:24:13.599Z,60.33
2022-09-25T15:26:45.898Z,55.20
2022-09-25T15:29:18.113Z,50.98
2022-09-25T15:31:51.146Z,45.57
2022-09-25T15:34:24.061Z,39.64
2022-09-25T15:36:51.913Z,37.01
2022-09-25T15:39:24.184Z,36.13
2022-09-25T15:41:51.086Z,36.64
2022-09-25T15:44:20.674Z,36.42
2022-09-25T15:46:50.921Z,34.43
2022-09-25T15:49:27.894Z,35.59
2022-09-25T15:52:01.214Z,35.18
2022-09-25T15:54:44.364Z,34.10
2022-09-25T15:57:15.187Z,34.03
2022-09-25T16:00:04.808Z,36.87
2022-09-25T16:02:53.642Z,42.20
2022-09-25T16:05:28.983Z,47.55
2022-09-25T16:08:33.494Z,52.22
2022-09-25T16:11:06.178Z,56.12
2022-09-25T16:13:33.035Z,59.47
2022-09-25T16:15:59.625Z,62.12
2022-09-25T16:18:39.729Z,64.46
2022-09-25T16:21:12.975Z,66.03
2022-09-25T16:23:42.242Z,67.87
2022-09-25T16:26:22.461Z,69.63
2022-09-25T16:29:00.842Z,70.69
2022-09-25T16:31:27.473Z,71.82
2022-09-25T16:33:57.224Z,72.54
2022-09-25T16:36:26.932Z,73.20
2022-09-25T16:39:08.335Z,74.39
2022-09-25T16:41:39.952Z,74.91
2022-09-25T16:44:20.931Z,74.75
2022-09-25T16:47:05.666Z,73.44
2022-09-25T16:49:33.706Z,71.78
2022-09-25T16:52:03.864Z,71.79
2022-09-25T16:54:32.449Z,73.51
2022-09-25T16:57:00.208Z,74.34
2022-09-25T16:59:28.341Z,75.74
2022-09-25T17:02:01.802Z,76.07
2022-09-25T17:04:30.399Z,77.20
2022-09-25T17:06:58.480Z,77.80
2022-09-25T17:09:28.154Z,78.03
2022-09-25T17:12:00.992Z,78.59
2022-09-25T17:14:28.637Z,79.49
2022-09-25T17:16:56.469Z,79.42
2022-09-25T17:19:23.482Z,80.07
2022-09-25T17:21:51.578Z,81.38
2022-09-25T17:24:20.799Z,81.21
2022-09-25T17:26:47.424Z,82.51
2022-09-25T17:29:14.216Z,82.66
2022-09-25T17:31:40.890Z,83.25
2022-09-25T17:34:16.067Z,83.67
2022-09-25T17:36:42.702Z,83.77
2022-09-25T17:39:09.038Z,84.39
2022-09-25T17:41:36.700Z,84.88
2022-09-25T17:44:04.584Z,85.54
2022-09-25T17:46:33.719Z,85.92
2022-09-25T17:49:00.673Z,86.14
2022-09-25T17:51:29.054Z,86.02
2022-09-25T17:53:56.651Z,86.05
2022-09-25T17:56:24.817Z,86.67
2022-09-25T17:58:52.480Z,86.79
2022-09-25T18:01:22.181Z,86.98
2022-09-25T18:03:53.714Z,87.52
2022-09-25T18:06:20.134Z,87.40
2022-09-25T18:08:47.778Z,87.08
2022-09-25T18:11:15.331Z,87.40
2022-09-25T18:13:42.174Z,87.72
2022-09-25T18:16:27.374Z,88.54
2022-09-25T18:19:12.369Z,88.02
2022-09-25T18:21:57.401Z,87.86
2022-09-25T18:24:23.777Z,87.61
2022-09-25T18:26:53.370Z,87.39
2022-09-25T18:29:20.674Z,87.57
2022-09-25T18:31:47.706Z,87.16
2022-09-25T18:34:15.102Z,87.18
2022-09-25T18:36:42.291Z,87.36
2022-09-25T18:39:08.838Z,87.51
2022-09-25T18:41:39.082Z,87.65
2022-09-25T18:44:07.247Z,87.15
2022-09-25T18:46:35.798Z,87.63
2022-09-25T18:49:02.284Z,87.46
2022-09-25T18:51:28.625Z,87.51
2022-09-25T18:53:57.944Z,87.62
2022-09-25T18:56:24.317Z,87.54
2022-09-25T18:58:51.901Z,87.07
2022-09-25T19:01:18.434Z,87.07
2022-09-25T19:03:50.366Z,87.66
2022-09-25T19:06:16.712Z,87.46
2022-09-25T19:08:43.047Z,87.46
2022-09-25T19:11:13.929Z,88.01
2022-09-25T19:13:42.106Z,88.09
2022-09-25T19:16:09.545Z,88.36
2022-09-25T19:18:36.376Z,88.60
2022-09-25T19:21:03.830Z,88.70
2022-09-25T19:23:35.259Z,88.69
2022-09-25T19:26:03.768Z,89.01
2022-09-25T19:28:32.100Z,89.70
2022-09-25T19:30:58.519Z,89.68
2022-09-25T19:33:25.728Z,89.74
2022-09-25T19:36:06.046Z,90.68
2022-09-25T19:38:36.965Z,90.61
2022-09-25T19:41:10.688Z,90.14
2022-09-25T19:43:37.438Z,90.79
2022-09-25T19:46:04.525Z,90.87
2022-09-25T19:48:32.324Z,90.91
2022-09-25T19:50:58.769Z,91.09
2022-09-25T19:53:25.160Z,91.25
2022-09-25T19:55:52.928Z,91.46
2022-09-25T19:58:23.128Z,91.73
2022-09-25T20:00:50.653Z,91.64
2022-09-25T20:03:17.915Z,91.50
2022-09-25T20:05:44.701Z,91.67
2022-09-25T20:08:11.318Z,91.78
2022-09-25T20:10:38.146Z,91.64
2022-09-25T20:13:05.309Z,91.87
2022-09-25T20:15:32.268Z,92.08
2022-09-25T20:17:59.394Z,91.88
2022-09-25T20:20:27.513Z,91.63
2022-09-25T20:22:53.917Z,91.61
2022-09-25T20:25:20.805Z,91.99
2022-09-25T20:27:52.180Z,91.96
2022-09-25T20:30:19.013Z,92.08
2022-09-25T20:32:45.797Z,91.88
2022-09-25T20:35:12.655Z,91.87
2022-09-25T20:37:39.090Z,91.60
2022-09-25T20:40:05.780Z,91.83
2022-09-25T20:42:33.788Z,91.84
2022-09-25T20:45:00.149Z,91.54
2022-09-25T20:47:33.683Z,91.69
2022-09-25T20:50:00.713Z,91.46
2022-09-25T20:52:27.754Z,92.05
2022-09-25T20:54:54.194Z,91.67
2022-09-25T20:57:20.587Z,91.94
2022-09-25T20:59:46.932Z,92.19
2022-09-25T21:02:13.793Z,92.62
2022-09-25T21:04:40.309Z,92.54
2022-09-25T21:07:06.727Z,93.06
2022-09-25T21:09:33.099Z,92.88
2022-09-25T21:11:59.859Z,93.48
2022-09-25T21:14:28.418Z,93.74
2022-09-25T21:16:58.947Z,93.63
2022-09-25T21:19:26.975Z,93.93
2022-09-25T21:21:53.447Z,93.47
2022-09-25T21:24:21.008Z,93.69
2022-09-25T21:26:47.805Z,94.00
2022-09-25T21:29:16.060Z,93.66
2022-09-25T21:31:48.438Z,93.93
2022-09-25T21:34:16.085Z,94.36
2022-09-25T21:36:43.499Z,94.02
2022-09-25T21:39:09.890Z,94.37
2022-09-25T21:41:36.344Z,94.26
2022-09-25T21:44:06.857Z,94.14
2022-09-25T21:46:34.542Z,94.34
2022-09-25T21:49:03.361Z,94.77
2022-09-25T21:51:33.031Z,94.60
2022-09-25T21:54:00.935Z,94.11
2022-09-25T21:56:29.857Z,94.44
2022-09-25T21:58:57.635Z,94.39
2022-09-25T22:01:27.157Z,94.89
2022-09-25T22:03:56.652Z,94.63
2022-09-25T22:06:28.465Z,94.46
2022-09-25T22:08:57.321Z,94.51
2022-09-25T22:11:24.368Z,94.77
2022-09-25T22:13:51.579Z,95.18
2022-09-25T22:16:22.824Z,94.80
2022-09-25T22:18:53.584Z,94.80
2022-09-25T22:21:22.804Z,95.42
2022-09-25T22:23:49.864Z,94.61
2022-09-25T22:26:17.321Z,94.85
2022-09-25T22:28:44.508Z,94.58
2022-09-25T22:31:16.967Z,94.56
2022-09-25T22:33:44.615Z,94.22
2022-09-25T22:36:12.390Z,94.46
2022-09-25T22:38:39.691Z,94.58
2022-09-25T22:41:11.519Z,94.54
2022-09-25T22:43:39.144Z,94.08
2022-09-25T22:46:06.843Z,94.08
2022-09-25T22:48:34.044Z,93.34
2022-09-25T22:51:10.136Z,93.34
2022-09-25T22:53:37.242Z,93.83
2022-09-25T22:56:20.077Z,93.54
2022-09-25T22:58:49.713Z,93.13
2022-09-25T23:01:46.382Z,93.52
2022-09-25T23:04:16.012Z,93.27
2022-09-25T23:06:43.097Z,93.89
2022-09-25T23:09:20.151Z,94.02
2022-09-25T23:11:46.902Z,93.40
2022-09-25T23:14:16.855Z,93.79
2022-09-25T23:16:45.131Z,93.62
2022-09-25T23:19:12.043Z,94.11
2022-09-25T23:21:39.122Z,93.71
2022-09-25T23:24:08.376Z,94.23
2022-09-25T23:26:34.886Z,94.16
2022-09-25T23:29:02.106Z,93.98
2022-09-25T23:31:30.526Z,94.46
2022-09-25T23:34:01.198Z,94.63
2022-09-25T23:36:29.048Z,94.36
2022-09-25T23:38:58.293Z,94.51
2022-09-25T23:41:30.024Z,94.56
2022-09-25T23:43:57.492Z,94.58
2022-09-25T23:46:26.302Z,94.66
2022-09-25T23:48:53.701Z,95.11
2022-09-25T23:51:22.522Z,94.89
2022-09-25T23:53:49.853Z,94.77
2022-09-25T23:56:21.824Z,94.68
2022-09-25T23:58:49.380Z,94.90
